sensor_id;sensor_type;location;lat;lon;timestamp;P1;durP1;ratioP1;P2;durP2;ratioP2
1428;SDS011;708;51.442;7.016;2024-01-10T00:01:03;10.85;;;9.85;;
1428;SDS011;708;51.442;7.016;2024-01-10T00:03:30;9.02;;;8.30;;
1428;SDS011;708;51.442;7.016;2024-01-10T00:05:58;7.32;;;6.82;;
1428;SDS011;708;51.442;7.016;2024-01-10T00:08:26;6.60;;;6.10;;
1428;SDS011;708;51.442;7.016;2024-01-10T00:10:54;7.10;;;6.65;;
1428;SDS011;708;51.442;7.016;2024-01-10T00:13:21;6.95;;;6.50;;
1428;SDS011;708;51.442;7.016;2024-01-10T00:15:48;7.60;;;7.00;;
1428;SDS011;708;51.442;7.016;2024-01-10T00:18:15;5.78;;;5.35;;
1428;SDS011;708;51.442;7.016;2024-01-10T00:20:42;5.32;;;4.93;;
1428;SDS011;708;51.442;7.016;2024-01-10T00:23:09;5.30;;;5.00;;
1428;SDS011;708;51.442;7.016;2024-01-10T00:25:36;6.25;;;5.50;;
1428;SDS011;708;51.442;7.016;2024-01-10T00:28:04;5.20;;;4.80;;
1428;SDS011;708;51.442;7.016;2024-01-10T00:30:31;4.68;;;4.40;;
1428;SDS011;708;51.442;7.016;2024-01-10T00:32:58;7.70;;;6.25;;
1428;SDS011;708;51.442;7.016;2024-01-10T00:35:25;9.20;;;6.60;;
1428;SDS011;708;51.442;7.016;2024-01-10T00:37:51;8.55;;;7.70;;
1428;SDS011;708;51.442;7.016;2024-01-10T00:40:18;10.25;;;9.18;;
1428;SDS011;708;51.442;7.016;2024-01-10T00:42:45;5.50;;;5.20;;
1428;SDS011;708;51.442;7.016;2024-01-10T00:45:15;6.55;;;6.13;;
1428;SDS011;708;51.442;7.016;2024-01-10T00:47:42;4.88;;;4.68;;
1428;SDS011;708;51.442;7.016;2024-01-10T00:50:09;4.85;;;4.65;;
1428;SDS011;708;51.442;7.016;2024-01-10T00:52:36;4.95;;;4.75;;
1428;SDS011;708;51.442;7.016;2024-01-10T00:55:03;7.25;;;4.57;;
1428;SDS011;708;51.442;7.016;2024-01-10T00:57:30;6.78;;;6.38;;
1428;SDS011;708;51.442;7.016;2024-01-10T00:59:57;4.10;;;3.90;;
1428;SDS011;708;51.442;7.016;2024-01-10T01:02:25;5.65;;;5.45;;
1428;SDS011;708;51.442;7.016;2024-01-10T01:04:53;5.68;;;5.47;;
1428;SDS011;708;51.442;7.016;2024-01-10T01:07:20;8.00;;;7.30;;
1428;SDS011;708;51.442;7.016;2024-01-10T01:09:46;8.00;;;7.53;;
1428;SDS011;708;51.442;7.016;2024-01-10T01:12:13;4.55;;;4.35;;
1428;SDS011;708;51.442;7.016;2024-01-10T01:14:40;5.20;;;4.88;;
1428;SDS011;708;51.442;7.016;2024-01-10T01:17:07;4.03;;;3.83;;
1428;SDS011;708;51.442;7.016;2024-01-10T01:19:35;5.07;;;4.88;;
1428;SDS011;708;51.442;7.016;2024-01-10T01:22:02;6.40;;;6.00;;
1428;SDS011;708;51.442;7.016;2024-01-10T01:24:29;6.10;;;5.70;;
1428;SDS011;708;51.442;7.016;2024-01-10T01:26:56;4.68;;;4.32;;
1428;SDS011;708;51.442;7.016;2024-01-10T01:29:23;3.35;;;3.25;;
1428;SDS011;708;51.442;7.016;2024-01-10T01:31:50;4.55;;;3.72;;
1428;SDS011;708;51.442;7.016;2024-01-10T01:34:17;3.42;;;3.33;;
1428;SDS011;708;51.442;7.016;2024-01-10T01:36:45;5.03;;;4.68;;
1428;SDS011;708;51.442;7.016;2024-01-10T01:39:12;4.50;;;4.30;;
1428;SDS011;708;51.442;7.016;2024-01-10T01:41:39;4.30;;;4.10;;
1428;SDS011;708;51.442;7.016;2024-01-10T01:44:06;3.95;;;3.75;;
1428;SDS011;708;51.442;7.016;2024-01-10T01:46:33;4.10;;;3.90;;
1428;SDS011;708;51.442;7.016;2024-01-10T01:49:00;4.40;;;4.20;;
1428;SDS011;708;51.442;7.016;2024-01-10T01:51:28;4.47;;;4.28;;
1428;SDS011;708;51.442;7.016;2024-01-10T01:53:59;3.70;;;3.60;;
1428;SDS011;708;51.442;7.016;2024-01-10T01:56:26;5.10;;;4.80;;
1428;SDS011;708;51.442;7.016;2024-01-10T01:58:53;3.65;;;3.55;;
1428;SDS011;708;51.442;7.016;2024-01-10T02:01:21;3.88;;;3.67;;
1428;SDS011;708;51.442;7.016;2024-01-10T02:03:48;7.13;;;5.43;;
1428;SDS011;708;51.442;7.016;2024-01-10T02:06:15;3.60;;;3.50;;
1428;SDS011;708;51.442;7.016;2024-01-10T02:08:42;5.32;;;5.10;;
1428;SDS011;708;51.442;7.016;2024-01-10T02:11:10;5.78;;;5.32;;
1428;SDS011;708;51.442;7.016;2024-01-10T02:13:37;4.85;;;4.55;;
1428;SDS011;708;51.442;7.016;2024-01-10T02:16:04;7.68;;;5.70;;
1428;SDS011;708;51.442;7.016;2024-01-10T02:18:31;6.63;;;6.10;;
1428;SDS011;708;51.442;7.016;2024-01-10T02:21:00;4.72;;;4.53;;
1428;SDS011;708;51.442;7.016;2024-01-10T02:23:26;5.10;;;4.60;;
1428;SDS011;708;51.442;7.016;2024-01-10T02:25:55;4.18;;;3.97;;
1428;SDS011;708;51.442;7.016;2024-01-10T02:28:21;4.30;;;4.10;;
1428;SDS011;708;51.442;7.016;2024-01-10T02:30:49;4.40;;;4.20;;
1428;SDS011;708;51.442;7.016;2024-01-10T02:33:16;10.57;;;9.18;;
1428;SDS011;708;51.442;7.016;2024-01-10T02:35:43;6.03;;;5.63;;
1428;SDS011;708;51.442;7.016;2024-01-10T02:38:10;3.75;;;3.65;;
1428;SDS011;708;51.442;7.016;2024-01-10T02:40:37;4.20;;;4.00;;
1428;SDS011;708;51.442;7.016;2024-01-10T02:43:05;4.63;;;4.43;;
1428;SDS011;708;51.442;7.016;2024-01-10T02:45:32;7.25;;;6.57;;
1428;SDS011;708;51.442;7.016;2024-01-10T02:48:00;4.15;;;3.95;;
1428;SDS011;708;51.442;7.016;2024-01-10T02:50:27;7.63;;;7.03;;
1428;SDS011;708;51.442;7.016;2024-01-10T02:52:54;4.28;;;4.07;;
1428;SDS011;708;51.442;7.016;2024-01-10T02:55:21;5.78;;;5.57;;
1428;SDS011;708;51.442;7.016;2024-01-10T02:57:47;7.50;;;7.03;;
1428;SDS011;708;51.442;7.016;2024-01-10T03:00:16;9.27;;;8.32;;
1428;SDS011;708;51.442;7.016;2024-01-10T03:02:43;6.75;;;6.18;;
1428;SDS011;708;51.442;7.016;2024-01-10T03:05:09;5.32;;;5.13;;
1428;SDS011;708;51.442;7.016;2024-01-10T03:07:36;4.25;;;4.05;;
1428;SDS011;708;51.442;7.016;2024-01-10T03:10:03;4.15;;;3.95;;
1428;SDS011;708;51.442;7.016;2024-01-10T03:12:31;13.88;;;12.93;;
1428;SDS011;708;51.442;7.016;2024-01-10T03:15:01;5.15;;;4.95;;
1428;SDS011;708;51.442;7.016;2024-01-10T03:17:30;5.10;;;4.88;;
1428;SDS011;708;51.442;7.016;2024-01-10T03:19:58;4.63;;;4.43;;
1428;SDS011;708;51.442;7.016;2024-01-10T03:22:25;5.28;;;5.07;;
1428;SDS011;708;51.442;7.016;2024-01-10T03:24:52;6.05;;;5.65;;
1428;SDS011;708;51.442;7.016;2024-01-10T03:27:19;7.20;;;6.80;;
1428;SDS011;708;51.442;7.016;2024-01-10T03:29:46;4.78;;;4.57;;
1428;SDS011;708;51.442;7.016;2024-01-10T03:32:13;9.73;;;8.65;;
1428;SDS011;708;51.442;7.016;2024-01-10T03:34:42;5.10;;;4.90;;
1428;SDS011;708;51.442;7.016;2024-01-10T03:37:09;4.72;;;4.53;;
1428;SDS011;708;51.442;7.016;2024-01-10T03:39:36;5.97;;;5.68;;
1428;SDS011;708;51.442;7.016;2024-01-10T03:42:03;8.65;;;7.90;;
1428;SDS011;708;51.442;7.016;2024-01-10T03:44:30;7.07;;;6.65;;
1428;SDS011;708;51.442;7.016;2024-01-10T03:46:57;6.32;;;6.05;;
1428;SDS011;708;51.442;7.016;2024-01-10T03:49:24;7.00;;;6.60;;
1428;SDS011;708;51.442;7.016;2024-01-10T03:51:59;6.90;;;6.55;;
1428;SDS011;708;51.442;7.016;2024-01-10T03:54:30;5.55;;;5.30;;
1428;SDS011;708;51.442;7.016;2024-01-10T03:56:58;7.47;;;6.97;;
1428;SDS011;708;51.442;7.016;2024-01-10T03:59:25;7.18;;;6.68;;
1428;SDS011;708;51.442;7.016;2024-01-10T04:01:52;5.78;;;5.32;;
1428;SDS011;708;51.442;7.016;2024-01-10T04:04:19;7.65;;;7.22;;
1428;SDS011;708;51.442;7.016;2024-01-10T04:06:47;8.65;;;7.90;;
1428;SDS011;708;51.442;7.016;2024-01-10T04:09:15;7.28;;;6.95;;
1428;SDS011;708;51.442;7.016;2024-01-10T04:11:42;6.13;;;5.85;;
1428;SDS011;708;51.442;7.016;2024-01-10T04:14:09;7.13;;;6.80;;
1428;SDS011;708;51.442;7.016;2024-01-10T04:16:36;9.95;;;9.10;;
1428;SDS011;708;51.442;7.016;2024-01-10T04:19:03;10.30;;;9.55;;
1428;SDS011;708;51.442;7.016;2024-01-10T04:21:29;13.98;;;8.60;;
1428;SDS011;708;51.442;7.016;2024-01-10T04:23:56;10.50;;;9.73;;
1428;SDS011;708;51.442;7.016;2024-01-10T04:26:25;9.20;;;8.70;;
1428;SDS011;708;51.442;7.016;2024-01-10T04:28:51;6.30;;;6.10;;
1428;SDS011;708;51.442;7.016;2024-01-10T04:31:18;6.70;;;6.32;;
1428;SDS011;708;51.442;7.016;2024-01-10T04:33:45;6.28;;;6.07;;
1428;SDS011;708;51.442;7.016;2024-01-10T04:36:12;6.68;;;6.45;;
1428;SDS011;708;51.442;7.016;2024-01-10T04:38:39;5.10;;;4.90;;
1428;SDS011;708;51.442;7.016;2024-01-10T04:41:06;6.32;;;6.03;;
1428;SDS011;708;51.442;7.016;2024-01-10T04:43:34;6.57;;;6.28;;
1428;SDS011;708;51.442;7.016;2024-01-10T04:46:00;5.72;;;5.53;;
1428;SDS011;708;51.442;7.016;2024-01-10T04:48:28;7.30;;;7.00;;
1428;SDS011;708;51.442;7.016;2024-01-10T04:50:55;8.35;;;7.95;;
1428;SDS011;708;51.442;7.016;2024-01-10T04:53:22;7.72;;;7.30;;
1428;SDS011;708;51.442;7.016;2024-01-10T04:55:48;6.55;;;6.35;;
1428;SDS011;708;51.442;7.016;2024-01-10T04:58:15;6.53;;;6.32;;
1428;SDS011;708;51.442;7.016;2024-01-10T05:00:44;11.43;;;10.50;;
1428;SDS011;708;51.442;7.016;2024-01-10T05:03:11;9.60;;;8.95;;
1428;SDS011;708;51.442;7.016;2024-01-10T05:05:38;7.93;;;7.55;;
1428;SDS011;708;51.442;7.016;2024-01-10T05:08:05;9.88;;;9.27;;
1428;SDS011;708;51.442;7.016;2024-01-10T05:10:32;6.97;;;6.68;;
1428;SDS011;708;51.442;7.016;2024-01-10T05:13:01;11.93;;;10.38;;
1428;SDS011;708;51.442;7.016;2024-01-10T05:15:28;9.40;;;8.82;;
1428;SDS011;708;51.442;7.016;2024-01-10T05:17:56;9.75;;;8.95;;
1428;SDS011;708;51.442;7.016;2024-01-10T05:20:23;7.80;;;7.45;;
1428;SDS011;708;51.442;7.016;2024-01-10T05:22:50;11.15;;;10.32;;
1428;SDS011;708;51.442;7.016;2024-01-10T05:25:17;9.68;;;9.02;;
1428;SDS011;708;51.442;7.016;2024-01-10T05:27:44;8.57;;;7.95;;
1428;SDS011;708;51.442;7.016;2024-01-10T05:30:11;9.13;;;8.73;;
1428;SDS011;708;51.442;7.016;2024-01-10T05:32:38;8.10;;;7.70;;
1428;SDS011;708;51.442;7.016;2024-01-10T05:35:07;14.07;;;12.18;;
1428;SDS011;708;51.442;7.016;2024-01-10T05:37:35;7.25;;;6.95;;
1428;SDS011;708;51.442;7.016;2024-01-10T05:40:02;11.93;;;10.93;;
1428;SDS011;708;51.442;7.016;2024-01-10T05:42:29;10.45;;;9.70;;
1428;SDS011;708;51.442;7.016;2024-01-10T05:44:57;7.15;;;6.78;;
1428;SDS011;708;51.442;7.016;2024-01-10T05:47:24;9.60;;;8.95;;
1428;SDS011;708;51.442;7.016;2024-01-10T05:49:52;5.50;;;5.30;;
1428;SDS011;708;51.442;7.016;2024-01-10T05:52:20;10.20;;;9.38;;
1428;SDS011;708;51.442;7.016;2024-01-10T05:54:47;9.73;;;7.80;;
1428;SDS011;708;51.442;7.016;2024-01-10T05:57:14;9.82;;;8.95;;
1428;SDS011;708;51.442;7.016;2024-01-10T05:59:41;7.45;;;6.82;;
1428;SDS011;708;51.442;7.016;2024-01-10T06:02:08;10.13;;;8.45;;
1428;SDS011;708;51.442;7.016;2024-01-10T06:04:35;12.68;;;11.65;;
1428;SDS011;708;51.442;7.016;2024-01-10T06:07:04;7.70;;;7.35;;
1428;SDS011;708;51.442;7.016;2024-01-10T06:09:32;12.20;;;11.30;;
1428;SDS011;708;51.442;7.016;2024-01-10T06:11:59;8.10;;;7.68;;
1428;SDS011;708;51.442;7.016;2024-01-10T06:14:26;6.00;;;5.60;;
1428;SDS011;708;51.442;7.016;2024-01-10T06:16:53;8.15;;;7.65;;
1428;SDS011;708;51.442;7.016;2024-01-10T06:19:20;8.43;;;8.05;;
1428;SDS011;708;51.442;7.016;2024-01-10T06:21:47;6.35;;;6.15;;
1428;SDS011;708;51.442;7.016;2024-01-10T06:24:14;12.20;;;11.10;;
1428;SDS011;708;51.442;7.016;2024-01-10T06:26:42;11.55;;;10.38;;
1428;SDS011;708;51.442;7.016;2024-01-10T06:29:08;11.38;;;10.55;;
1428;SDS011;708;51.442;7.016;2024-01-10T06:31:35;10.48;;;9.52;;
1428;SDS011;708;51.442;7.016;2024-01-10T06:34:02;7.78;;;7.45;;
1428;SDS011;708;51.442;7.016;2024-01-10T06:36:28;9.52;;;8.93;;
1428;SDS011;708;51.442;7.016;2024-01-10T06:38:55;7.45;;;6.93;;
1428;SDS011;708;51.442;7.016;2024-01-10T06:41:22;10.35;;;8.77;;
1428;SDS011;708;51.442;7.016;2024-01-10T06:43:51;11.05;;;10.00;;
1428;SDS011;708;51.442;7.016;2024-01-10T06:46:18;13.15;;;11.80;;
1428;SDS011;708;51.442;7.016;2024-01-10T06:48:45;7.50;;;7.10;;
1428;SDS011;708;51.442;7.016;2024-01-10T06:51:12;8.25;;;7.95;;
1428;SDS011;708;51.442;7.016;2024-01-10T06:53:40;9.23;;;8.63;;
1428;SDS011;708;51.442;7.016;2024-01-10T06:56:07;10.07;;;9.48;;
1428;SDS011;708;51.442;7.016;2024-01-10T06:58:35;9.95;;;9.13;;
1428;SDS011;708;51.442;7.016;2024-01-10T07:01:04;10.88;;;10.18;;
1428;SDS011;708;51.442;7.016;2024-01-10T07:03:31;6.72;;;6.43;;
1428;SDS011;708;51.442;7.016;2024-01-10T07:06:00;10.30;;;9.52;;
1428;SDS011;708;51.442;7.016;2024-01-10T07:08:26;12.13;;;11.27;;
1428;SDS011;708;51.442;7.016;2024-01-10T07:10:55;8.13;;;7.57;;
1428;SDS011;708;51.442;7.016;2024-01-10T07:13:22;7.28;;;6.88;;
1428;SDS011;708;51.442;7.016;2024-01-10T07:15:49;7.82;;;7.53;;
1428;SDS011;708;51.442;7.016;2024-01-10T07:18:18;6.65;;;6.45;;
1428;SDS011;708;51.442;7.016;2024-01-10T07:20:45;7.30;;;6.70;;
1428;SDS011;708;51.442;7.016;2024-01-10T07:23:12;7.68;;;7.03;;
1428;SDS011;708;51.442;7.016;2024-01-10T07:25:39;9.80;;;8.93;;
1428;SDS011;708;51.442;7.016;2024-01-10T07:28:06;6.15;;;5.85;;
1428;SDS011;708;51.442;7.016;2024-01-10T07:30:33;9.40;;;8.60;;
1428;SDS011;708;51.442;7.016;2024-01-10T07:33:00;8.88;;;8.13;;
1428;SDS011;708;51.442;7.016;2024-01-10T07:35:28;8.45;;;8.02;;
1428;SDS011;708;51.442;7.016;2024-01-10T07:38:00;9.75;;;9.15;;
1428;SDS011;708;51.442;7.016;2024-01-10T07:40:32;9.02;;;8.50;;
1428;SDS011;708;51.442;7.016;2024-01-10T07:43:00;10.43;;;9.73;;
1428;SDS011;708;51.442;7.016;2024-01-10T07:45:27;11.98;;;10.27;;
1428;SDS011;708;51.442;7.016;2024-01-10T07:47:57;10.02;;;9.27;;
1428;SDS011;708;51.442;7.016;2024-01-10T07:50:25;10.10;;;9.35;;
1428;SDS011;708;51.442;7.016;2024-01-10T07:52:54;8.90;;;8.50;;
1428;SDS011;708;51.442;7.016;2024-01-10T07:55:21;13.40;;;12.38;;
1428;SDS011;708;51.442;7.016;2024-01-10T07:57:48;12.50;;;11.75;;
1428;SDS011;708;51.442;7.016;2024-01-10T08:00:15;15.27;;;14.07;;
1428;SDS011;708;51.442;7.016;2024-01-10T08:02:45;11.75;;;10.95;;
1428;SDS011;708;51.442;7.016;2024-01-10T08:05:12;13.48;;;12.10;;
1428;SDS011;708;51.442;7.016;2024-01-10T08:07:39;10.88;;;10.13;;
1428;SDS011;708;51.442;7.016;2024-01-10T08:10:08;12.55;;;11.77;;
1428;SDS011;708;51.442;7.016;2024-01-10T08:12:36;12.05;;;10.23;;
1428;SDS011;708;51.442;7.016;2024-01-10T08:15:04;12.05;;;11.07;;
1428;SDS011;708;51.442;7.016;2024-01-10T08:17:32;11.50;;;8.60;;
1428;SDS011;708;51.442;7.016;2024-01-10T08:20:00;11.68;;;10.75;;
1428;SDS011;708;51.442;7.016;2024-01-10T08:22:29;11.50;;;10.63;;
1428;SDS011;708;51.442;7.016;2024-01-10T08:24:56;11.93;;;10.88;;
1428;SDS011;708;51.442;7.016;2024-01-10T08:27:24;12.73;;;11.65;;
1428;SDS011;708;51.442;7.016;2024-01-10T08:29:51;12.00;;;11.20;;
1428;SDS011;708;51.442;7.016;2024-01-10T08:32:18;11.25;;;10.30;;
1428;SDS011;708;51.442;7.016;2024-01-10T08:34:47;15.23;;;13.95;;
1428;SDS011;708;51.442;7.016;2024-01-10T08:37:14;16.95;;;15.27;;
1428;SDS011;708;51.442;7.016;2024-01-10T08:39:42;13.00;;;12.02;;
1428;SDS011;708;51.442;7.016;2024-01-10T08:42:09;10.75;;;9.75;;
1428;SDS011;708;51.442;7.016;2024-01-10T08:44:37;11.35;;;10.73;;
1428;SDS011;708;51.442;7.016;2024-01-10T08:47:04;12.10;;;11.20;;
1428;SDS011;708;51.442;7.016;2024-01-10T08:49:31;12.88;;;11.18;;
1428;SDS011;708;51.442;7.016;2024-01-10T08:51:58;11.25;;;10.32;;
1428;SDS011;708;51.442;7.016;2024-01-10T08:54:25;14.70;;;13.35;;
1428;SDS011;708;51.442;7.016;2024-01-10T08:56:52;9.32;;;8.88;;
1428;SDS011;708;51.442;7.016;2024-01-10T08:59:19;11.50;;;10.68;;
1428;SDS011;708;51.442;7.016;2024-01-10T09:01:48;12.63;;;11.55;;
1428;SDS011;708;51.442;7.016;2024-01-10T09:04:14;9.98;;;9.18;;
1428;SDS011;708;51.442;7.016;2024-01-10T09:06:41;10.05;;;9.60;;
1428;SDS011;708;51.442;7.016;2024-01-10T09:09:09;15.15;;;13.25;;
1428;SDS011;708;51.442;7.016;2024-01-10T09:11:37;12.32;;;11.00;;
1428;SDS011;708;51.442;7.016;2024-01-10T09:14:04;9.95;;;9.43;;
1428;SDS011;708;51.442;7.016;2024-01-10T09:16:32;12.60;;;11.75;;
1428;SDS011;708;51.442;7.016;2024-01-10T09:19:00;11.20;;;9.82;;
1428;SDS011;708;51.442;7.016;2024-01-10T09:21:27;9.75;;;9.25;;
1428;SDS011;708;51.442;7.016;2024-01-10T09:23:53;10.10;;;9.70;;
1428;SDS011;708;51.442;7.016;2024-01-10T09:26:21;12.27;;;11.57;;
1428;SDS011;708;51.442;7.016;2024-01-10T09:28:48;13.52;;;12.60;;
1428;SDS011;708;51.442;7.016;2024-01-10T09:31:15;12.68;;;12.00;;
1428;SDS011;708;51.442;7.016;2024-01-10T09:33:42;12.30;;;11.13;;
1428;SDS011;708;51.442;7.016;2024-01-10T09:36:10;9.93;;;9.43;;
1428;SDS011;708;51.442;7.016;2024-01-10T09:38:37;15.32;;;14.10;;
1428;SDS011;708;51.442;7.016;2024-01-10T09:41:04;9.02;;;8.50;;
1428;SDS011;708;51.442;7.016;2024-01-10T09:43:31;11.35;;;10.60;;
1428;SDS011;708;51.442;7.016;2024-01-10T09:46:00;8.27;;;7.88;;
1428;SDS011;708;51.442;7.016;2024-01-10T09:48:28;11.43;;;10.82;;
1428;SDS011;708;51.442;7.016;2024-01-10T09:50:56;18.05;;;16.40;;
1428;SDS011;708;51.442;7.016;2024-01-10T09:53:25;16.00;;;14.32;;
1428;SDS011;708;51.442;7.016;2024-01-10T09:55:53;12.73;;;11.63;;
1428;SDS011;708;51.442;7.016;2024-01-10T09:58:22;10.35;;;9.75;;
1428;SDS011;708;51.442;7.016;2024-01-10T10:00:50;10.70;;;10.25;;
1428;SDS011;708;51.442;7.016;2024-01-10T10:03:17;12.10;;;11.25;;
1428;SDS011;708;51.442;7.016;2024-01-10T10:05:44;10.00;;;9.27;;
1428;SDS011;708;51.442;7.016;2024-01-10T10:08:12;13.80;;;12.88;;
1428;SDS011;708;51.442;7.016;2024-01-10T10:10:41;12.65;;;11.75;;
1428;SDS011;708;51.442;7.016;2024-01-10T10:13:10;10.15;;;9.45;;
1428;SDS011;708;51.442;7.016;2024-01-10T10:15:52;8.77;;;8.48;;
1428;SDS011;708;51.442;7.016;2024-01-10T10:18:24;12.55;;;11.18;;
1428;SDS011;708;51.442;7.016;2024-01-10T10:21:04;13.95;;;11.13;;
1428;SDS011;708;51.442;7.016;2024-01-10T10:23:32;20.23;;;17.10;;
1428;SDS011;708;51.442;7.016;2024-01-10T10:26:02;17.98;;;16.05;;
1428;SDS011;708;51.442;7.016;2024-01-10T10:28:39;10.23;;;9.65;;
1428;SDS011;708;51.442;7.016;2024-01-10T10:31:06;15.75;;;14.35;;
1428;SDS011;708;51.442;7.016;2024-01-10T10:33:34;14.98;;;13.55;;
1428;SDS011;708;51.442;7.016;2024-01-10T10:36:01;8.73;;;8.32;;
1428;SDS011;708;51.442;7.016;2024-01-10T10:38:28;8.55;;;8.18;;
1428;SDS011;708;51.442;7.016;2024-01-10T10:40:55;11.32;;;10.73;;
1428;SDS011;708;51.442;7.016;2024-01-10T10:43:25;12.68;;;11.75;;
1428;SDS011;708;51.442;7.016;2024-01-10T10:45:55;11.73;;;11.23;;
1428;SDS011;708;51.442;7.016;2024-01-10T10:48:23;9.90;;;9.38;;
1428;SDS011;708;51.442;7.016;2024-01-10T10:50:54;20.13;;;18.33;;
1428;SDS011;708;51.442;7.016;2024-01-10T10:53:25;17.75;;;16.10;;
1428;SDS011;708;51.442;7.016;2024-01-10T10:55:53;14.25;;;12.98;;
1428;SDS011;708;51.442;7.016;2024-01-10T10:58:23;12.13;;;11.32;;
1428;SDS011;708;51.442;7.016;2024-01-10T11:00:51;8.73;;;8.43;;
1428;SDS011;708;51.442;7.016;2024-01-10T11:03:19;8.25;;;7.95;;
1428;SDS011;708;51.442;7.016;2024-01-10T11:05:47;12.23;;;11.48;;
1428;SDS011;708;51.442;7.016;2024-01-10T11:08:16;14.23;;;13.27;;
1428;SDS011;708;51.442;7.016;2024-01-10T11:10:45;11.20;;;10.27;;
1428;SDS011;708;51.442;7.016;2024-01-10T11:13:20;12.50;;;11.30;;
1428;SDS011;708;51.442;7.016;2024-01-10T11:19:13;12.38;;;11.25;;
1428;SDS011;708;51.442;7.016;2024-01-10T11:21:56;19.10;;;17.52;;
1428;SDS011;708;51.442;7.016;2024-01-10T11:24:36;14.70;;;13.57;;
1428;SDS011;708;51.442;7.016;2024-01-10T11:27:06;9.27;;;8.88;;
1428;SDS011;708;51.442;7.016;2024-01-10T11:29:37;7.95;;;7.65;;
1428;SDS011;708;51.442;7.016;2024-01-10T11:32:06;12.30;;;11.35;;
1428;SDS011;708;51.442;7.016;2024-01-10T11:34:34;14.05;;;12.82;;
1428;SDS011;708;51.442;7.016;2024-01-10T11:37:10;11.40;;;9.48;;
1428;SDS011;708;51.442;7.016;2024-01-10T11:39:39;12.27;;;11.45;;
1428;SDS011;708;51.442;7.016;2024-01-10T11:42:07;16.50;;;15.10;;
1428;SDS011;708;51.442;7.016;2024-01-10T11:44:36;9.63;;;9.27;;
1428;SDS011;708;51.442;7.016;2024-01-10T11:47:15;16.60;;;15.27;;
1428;SDS011;708;51.442;7.016;2024-01-10T11:49:52;14.60;;;13.60;;
1428;SDS011;708;51.442;7.016;2024-01-10T11:52:21;11.20;;;10.45;;
1428;SDS011;708;51.442;7.016;2024-01-10T11:54:49;11.38;;;10.77;;
1428;SDS011;708;51.442;7.016;2024-01-10T11:57:19;63.47;;;25.75;;
1428;SDS011;708;51.442;7.016;2024-01-10T11:59:49;11.50;;;10.43;;
1428;SDS011;708;51.442;7.016;2024-01-10T12:02:18;9.40;;;9.00;;
1428;SDS011;708;51.442;7.016;2024-01-10T12:04:46;10.05;;;9.48;;
1428;SDS011;708;51.442;7.016;2024-01-10T12:07:14;13.60;;;12.30;;
1428;SDS011;708;51.442;7.016;2024-01-10T12:09:41;14.90;;;13.52;;
1428;SDS011;708;51.442;7.016;2024-01-10T12:12:08;9.02;;;8.63;;
1428;SDS011;708;51.442;7.016;2024-01-10T12:14:36;18.65;;;16.98;;
1428;SDS011;708;51.442;7.016;2024-01-10T12:17:03;8.32;;;7.93;;
1428;SDS011;708;51.442;7.016;2024-01-10T12:19:34;10.10;;;9.48;;
1428;SDS011;708;51.442;7.016;2024-01-10T12:22:02;8.90;;;8.50;;
1428;SDS011;708;51.442;7.016;2024-01-10T12:24:30;11.10;;;10.27;;
1428;SDS011;708;51.442;7.016;2024-01-10T12:26:58;10.95;;;10.25;;
1428;SDS011;708;51.442;7.016;2024-01-10T12:29:25;11.40;;;10.80;;
1428;SDS011;708;51.442;7.016;2024-01-10T12:31:52;9.85;;;9.35;;
1428;SDS011;708;51.442;7.016;2024-01-10T12:34:19;10.30;;;9.70;;
1428;SDS011;708;51.442;7.016;2024-01-10T12:36:49;11.68;;;11.18;;
1428;SDS011;708;51.442;7.016;2024-01-10T12:39:20;13.15;;;12.35;;
1428;SDS011;708;51.442;7.016;2024-01-10T12:41:48;13.48;;;12.52;;
1428;SDS011;708;51.442;7.016;2024-01-10T12:44:15;16.27;;;14.82;;
1428;SDS011;708;51.442;7.016;2024-01-10T12:46:51;15.77;;;14.43;;
1428;SDS011;708;51.442;7.016;2024-01-10T12:49:18;10.43;;;9.82;;
1428;SDS011;708;51.442;7.016;2024-01-10T12:51:46;9.60;;;9.20;;
1428;SDS011;708;51.442;7.016;2024-01-10T12:54:14;10.98;;;10.18;;
1428;SDS011;708;51.442;7.016;2024-01-10T12:56:42;12.60;;;11.50;;
1428;SDS011;708;51.442;7.016;2024-01-10T12:59:09;7.38;;;7.07;;
1428;SDS011;708;51.442;7.016;2024-01-10T13:01:36;10.48;;;9.82;;
1428;SDS011;708;51.442;7.016;2024-01-10T13:04:03;13.98;;;12.85;;
1428;SDS011;708;51.442;7.016;2024-01-10T13:06:31;9.27;;;8.70;;
1428;SDS011;708;51.442;7.016;2024-01-10T13:08:57;8.55;;;8.25;;
1428;SDS011;708;51.442;7.016;2024-01-10T13:11:25;13.20;;;11.98;;
1428;SDS011;708;51.442;7.016;2024-01-10T13:13:52;14.65;;;13.55;;
1428;SDS011;708;51.442;7.016;2024-01-10T13:16:19;16.80;;;15.48;;
1428;SDS011;708;51.442;7.016;2024-01-10T13:18:45;13.43;;;12.53;;
1428;SDS011;708;51.442;7.016;2024-01-10T13:21:12;7.68;;;7.38;;
1428;SDS011;708;51.442;7.016;2024-01-10T13:23:39;10.80;;;10.40;;
1428;SDS011;708;51.442;7.016;2024-01-10T13:26:07;7.57;;;7.28;;
1428;SDS011;708;51.442;7.016;2024-01-10T13:28:37;10.45;;;9.85;;
1428;SDS011;708;51.442;7.016;2024-01-10T13:31:05;13.57;;;12.52;;
1428;SDS011;708;51.442;7.016;2024-01-10T13:33:32;17.02;;;15.25;;
1428;SDS011;708;51.442;7.016;2024-01-10T13:35:59;15.65;;;13.48;;
1428;SDS011;708;51.442;7.016;2024-01-10T13:38:26;15.73;;;14.23;;
1428;SDS011;708;51.442;7.016;2024-01-10T13:40:52;9.40;;;8.75;;
1428;SDS011;708;51.442;7.016;2024-01-10T13:43:19;7.68;;;7.38;;
1428;SDS011;708;51.442;7.016;2024-01-10T13:45:47;7.53;;;7.22;;
1428;SDS011;708;51.442;7.016;2024-01-10T13:48:14;9.80;;;9.30;;
1428;SDS011;708;51.442;7.016;2024-01-10T13:50:42;8.15;;;7.85;;
1428;SDS011;708;51.442;7.016;2024-01-10T13:53:08;8.57;;;8.18;;
1428;SDS011;708;51.442;7.016;2024-01-10T13:55:35;12.02;;;11.00;;
1428;SDS011;708;51.442;7.016;2024-01-10T13:58:02;11.93;;;11.32;;
1428;SDS011;708;51.442;7.016;2024-01-10T14:00:29;10.40;;;9.80;;
1428;SDS011;708;51.442;7.016;2024-01-10T14:02:57;11.20;;;10.48;;
1428;SDS011;708;51.442;7.016;2024-01-10T14:05:25;11.05;;;10.30;;
1428;SDS011;708;51.442;7.016;2024-01-10T14:07:53;9.43;;;8.88;;
1428;SDS011;708;51.442;7.016;2024-01-10T14:10:20;11.73;;;11.02;;
1428;SDS011;708;51.442;7.016;2024-01-10T14:12:47;9.48;;;8.98;;
1428;SDS011;708;51.442;7.016;2024-01-10T14:15:14;10.57;;;10.15;;
1428;SDS011;708;51.442;7.016;2024-01-10T14:17:41;12.07;;;11.23;;
1428;SDS011;708;51.442;7.016;2024-01-10T14:20:10;10.93;;;10.38;;
1428;SDS011;708;51.442;7.016;2024-01-10T14:22:38;7.55;;;7.25;;
1428;SDS011;708;51.442;7.016;2024-01-10T14:25:06;14.88;;;13.55;;
1428;SDS011;708;51.442;7.016;2024-01-10T14:27:34;7.93;;;7.63;;
1428;SDS011;708;51.442;7.016;2024-01-10T14:30:03;10.18;;;9.60;;
1428;SDS011;708;51.442;7.016;2024-01-10T14:32:33;7.30;;;7.00;;
1428;SDS011;708;51.442;7.016;2024-01-10T14:35:01;12.65;;;11.48;;
1428;SDS011;708;51.442;7.016;2024-01-10T14:37:31;9.02;;;8.38;;
1428;SDS011;708;51.442;7.016;2024-01-10T14:40:00;9.43;;;8.63;;
1428;SDS011;708;51.442;7.016;2024-01-10T14:42:27;6.70;;;6.28;;
1428;SDS011;708;51.442;7.016;2024-01-10T14:44:54;13.98;;;12.65;;
1428;SDS011;708;51.442;7.016;2024-01-10T14:47:21;11.68;;;10.65;;
1428;SDS011;708;51.442;7.016;2024-01-10T14:49:51;8.35;;;8.05;;
1428;SDS011;708;51.442;7.016;2024-01-10T14:52:18;8.65;;;7.82;;
1428;SDS011;708;51.442;7.016;2024-01-10T14:54:46;22.73;;;12.00;;
1428;SDS011;708;51.442;7.016;2024-01-10T14:57:13;12.82;;;11.63;;
1428;SDS011;708;51.442;7.016;2024-01-10T14:59:41;12.20;;;11.40;;
1428;SDS011;708;51.442;7.016;2024-01-10T15:02:08;11.65;;;10.55;;
1428;SDS011;708;51.442;7.016;2024-01-10T15:04:39;8.05;;;7.72;;
1428;SDS011;708;51.442;7.016;2024-01-10T15:07:06;10.00;;;9.50;;
1428;SDS011;708;51.442;7.016;2024-01-10T15:09:33;9.27;;;8.65;;
1428;SDS011;708;51.442;7.016;2024-01-10T15:12:03;10.88;;;9.77;;
1428;SDS011;708;51.442;7.016;2024-01-10T15:14:32;9.43;;;8.82;;
1428;SDS011;708;51.442;7.016;2024-01-10T15:17:00;7.68;;;7.13;;
1428;SDS011;708;51.442;7.016;2024-01-10T15:19:29;9.98;;;9.43;;
1428;SDS011;708;51.442;7.016;2024-01-10T15:21:57;6.25;;;6.05;;
1428;SDS011;708;51.442;7.016;2024-01-10T15:24:25;8.00;;;7.70;;
1428;SDS011;708;51.442;7.016;2024-01-10T15:26:52;10.52;;;9.75;;